sensor_id;sensor_type;location;lat;lon;timestamp;temperature;humidity
13164;DHT22;6647;53.688;10.746;2022-10-24T00:00:33;14.80;99.90
13164;DHT22;6647;53.688;10.746;2022-10-24T00:01:54;14.80;99.90
13164;DHT22;6647;53.688;10.746;2022-10-24T00:03:15;14.70;99.90
13164;DHT22;6647;53.688;10.746;2022-10-24T00:04:37;14.80;99.90
13164;DHT22;6647;53.688;10.746;2022-10-24T00:05:58;14.70;99.90
13164;DHT22;6647;53.688;10.746;2022-10-24T00:07:19;14.70;99.90
13164;DHT22;6647;53.688;10.746;2022-10-24T00:08:42;14.70;99.90
13164;DHT22;6647;53.688;10.746;2022-10-24T00:10:04;14.70;99.90
13164;DHT22;6647;53.688;10.746;2022-10-24T00:11:26;14.70;99.90
13164;DHT22;6647;53.688;10.746;2022-10-24T00:12:47;14.70;99.90
13164;DHT22;6647;53.688;10.746;2022-10-24T00:14:08;14.70;99.90
13164;DHT22;6647;53.688;10.746;2022-10-24T00:15:29;14.70;99.90
13164;DHT22;6647;53.688;10.746;2022-10-24T00:16:50;14.60;99.90
13164;DHT22;6647;53.688;10.746;2022-10-24T00:18:12;14.60;99.90
13164;DHT22;6647;53.688;10.746;2022-10-24T00:19:33;14.60;99.90
13164;DHT22;6647;53.688;10.746;2022-10-24T00:20:54;14.60;99.90
13164;DHT22;6647;53.688;10.746;2022-10-24T00:22:15;14.60;99.90
13164;DHT22;6647;53.688;10.746;2022-10-24T00:23:37;14.60;99.90
13164;DHT22;6647;53.688;10.746;2022-10-24T00:24:58;14.60;99.90
13164;DHT22;6647;53.688;10.746;2022-10-24T00:26:18;14.60;99.90
13164;DHT22;6647;53.688;10.746;2022-10-24T00:27:39;14.60;99.90
13164;DHT22;6647;53.688;10.746;2022-10-24T00:29:00;14.50;99.90
13164;DHT22;6647;53.688;10.746;2022-10-24T00:30:21;14.50;99.90
13164;DHT22;6647;53.688;10.746;2022-10-24T00:31:42;14.50;99.90
13164;DHT22;6647;53.688;10.746;2022-10-24T00:33:03;14.50;99.90
13164;DHT22;6647;53.688;10.746;2022-10-24T00:34:24;14.50;99.90
13164;DHT22;6647;53.688;10.746;2022-10-24T00:35:45;14.50;99.90
13164;DHT22;6647;53.688;10.746;2022-10-24T00:37:06;14.50;99.90
13164;DHT22;6647;53.688;10.746;2022-10-24T00:38:27;14.50;99.90
13164;DHT22;6647;53.688;10.746;2022-10-24T00:39:48;14.50;99.90
13164;DHT22;6647;53.688;10.746;2022-10-24T00:41:14;14.50;99.90
13164;DHT22;6647;53.688;10.746;2022-10-24T00:42:35;14.50;99.90
13164;DHT22;6647;53.688;10.746;2022-10-24T00:44:18;14.50;99.90
13164;DHT22;6647;53.688;10.746;2022-10-24T00:45:57;14.50;99.90
13164;DHT22;6647;53.688;10.746;2022-10-24T00:47:21;14.50;99.90
13164;DHT22;6647;53.688;10.746;2022-10-24T00:48:44;14.50;99.90
13164;DHT22;6647;53.688;10.746;2022-10-24T00:50:12;14.50;99.90
13164;DHT22;6647;53.688;10.746;2022-10-24T00:51:34;14.50;99.90
13164;DHT22;6647;53.688;10.746;2022-10-24T00:52:55;14.50;99.90
13164;DHT22;6647;53.688;10.746;2022-10-24T00:54:16;14.50;99.90
13164;DHT22;6647;53.688;10.746;2022-10-24T00:55:37;14.50;99.90
13164;DHT22;6647;53.688;10.746;2022-10-24T00:57:10;14.50;99.90
13164;DHT22;6647;53.688;10.746;2022-10-24T00:58:34;14.50;99.90
13164;DHT22;6647;53.688;10.746;2022-10-24T01:00:00;14.50;99.90
13164;DHT22;6647;53.688;10.746;2022-10-24T01:01:24;14.50;99.90
13164;DHT22;6647;53.688;10.746;2022-10-24T01:02:46;14.50;99.90
13164;DHT22;6647;53.688;10.746;2022-10-24T01:04:11;14.40;99.90
13164;DHT22;6647;53.688;10.746;2022-10-24T01:05:44;14.40;99.90
13164;DHT22;6647;53.688;10.746;2022-10-24T01:07:28;14.40;99.90
13164;DHT22;6647;53.688;10.746;2022-10-24T01:09:02;14.50;99.90
13164;DHT22;6647;53.688;10.746;2022-10-24T01:10:59;14.50;99.90
13164;DHT22;6647;53.688;10.746;2022-10-24T01:12:45;14.50;99.90
13164;DHT22;6647;53.688;10.746;2022-10-24T01:18:52;14.50;99.90
13164;DHT22;6647;53.688;10.746;2022-10-24T01:20:35;14.40;99.90
13164;DHT22;6647;53.688;10.746;2022-10-24T01:22:05;14.40;99.90
13164;DHT22;6647;53.688;10.746;2022-10-24T01:28:23;14.40;99.90
13164;DHT22;6647;53.688;10.746;2022-10-24T01:31:27;14.40;99.90
13164;DHT22;6647;53.688;10.746;2022-10-24T01:36:08;14.40;99.90
13164;DHT22;6647;53.688;10.746;2022-10-24T01:37:50;14.40;99.90
13164;DHT22;6647;53.688;10.746;2022-10-24T01:39:16;14.40;99.90
13164;DHT22;6647;53.688;10.746;2022-10-24T01:40:50;14.40;99.90
13164;DHT22;6647;53.688;10.746;2022-10-24T01:42:14;14.30;99.90
13164;DHT22;6647;53.688;10.746;2022-10-24T01:43:51;14.30;99.90
13164;DHT22;6647;53.688;10.746;2022-10-24T01:45:17;14.30;99.90
13164;DHT22;6647;53.688;10.746;2022-10-24T01:46:47;14.30;99.90
13164;DHT22;6647;53.688;10.746;2022-10-24T01:48:13;14.30;99.90
13164;DHT22;6647;53.688;10.746;2022-10-24T01:49:36;14.30;99.90
13164;DHT22;6647;53.688;10.746;2022-10-24T01:51:01;14.30;99.90
13164;DHT22;6647;53.688;10.746;2022-10-24T01:52:24;14.30;99.90
13164;DHT22;6647;53.688;10.746;2022-10-24T01:53:47;14.30;99.90
13164;DHT22;6647;53.688;10.746;2022-10-24T01:55:09;14.30;99.90
13164;DHT22;6647;53.688;10.746;2022-10-24T01:56:30;14.30;99.90
13164;DHT22;6647;53.688;10.746;2022-10-24T01:57:51;14.30;99.90
13164;DHT22;6647;53.688;10.746;2022-10-24T02:00:50;14.30;99.90
13164;DHT22;6647;53.688;10.746;2022-10-24T02:02:21;14.30;99.90
13164;DHT22;6647;53.688;10.746;2022-10-24T02:03:51;14.30;99.90
13164;DHT22;6647;53.688;10.746;2022-10-24T02:05:18;14.30;99.90
13164;DHT22;6647;53.688;10.746;2022-10-24T02:06:40;14.30;99.90
13164;DHT22;6647;53.688;10.746;2022-10-24T02:08:06;14.30;99.90
13164;DHT22;6647;53.688;10.746;2022-10-24T02:09:29;14.20;99.90
13164;DHT22;6647;53.688;10.746;2022-10-24T02:10:57;14.20;99.90
13164;DHT22;6647;53.688;10.746;2022-10-24T02:12:20;14.30;99.90
13164;DHT22;6647;53.688;10.746;2022-10-24T02:13:55;14.30;99.90
13164;DHT22;6647;53.688;10.746;2022-10-24T02:15:23;14.20;99.90
13164;DHT22;6647;53.688;10.746;2022-10-24T02:16:44;14.20;99.90
13164;DHT22;6647;53.688;10.746;2022-10-24T02:18:07;14.20;99.90
13164;DHT22;6647;53.688;10.746;2022-10-24T02:19:29;14.20;99.90
13164;DHT22;6647;53.688;10.746;2022-10-24T02:21:16;14.20;99.90
13164;DHT22;6647;53.688;10.746;2022-10-24T02:22:46;14.20;99.90
13164;DHT22;6647;53.688;10.746;2022-10-24T02:25:33;14.20;99.90
13164;DHT22;6647;53.688;10.746;2022-10-24T02:27:05;14.20;99.90
13164;DHT22;6647;53.688;10.746;2022-10-24T02:28:31;14.20;99.90
13164;DHT22;6647;53.688;10.746;2022-10-24T02:29:59;14.20;99.90
13164;DHT22;6647;53.688;10.746;2022-10-24T02:31:21;14.20;99.90
13164;DHT22;6647;53.688;10.746;2022-10-24T02:32:48;14.20;99.90
13164;DHT22;6647;53.688;10.746;2022-10-24T02:34:10;14.10;99.90
13164;DHT22;6647;53.688;10.746;2022-10-24T02:35:34;14.10;99.90
13164;DHT22;6647;53.688;10.746;2022-10-24T02:36:56;14.10;99.90
13164;DHT22;6647;53.688;10.746;2022-10-24T02:38:28;14.10;99.90
13164;DHT22;6647;53.688;10.746;2022-10-24T02:39:51;14.10;99.90
13164;DHT22;6647;53.688;10.746;2022-10-24T02:41:18;14.10;99.90
13164;DHT22;6647;53.688;10.746;2022-10-24T02:42:41;14.10;99.90
13164;DHT22;6647;53.688;10.746;2022-10-24T02:44:03;14.10;99.90
13164;DHT22;6647;53.688;10.746;2022-10-24T02:45:25;14.10;99.90
13164;DHT22;6647;53.688;10.746;2022-10-24T02:46:48;14.10;99.90
13164;DHT22;6647;53.688;10.746;2022-10-24T02:48:11;14.10;99.90
13164;DHT22;6647;53.688;10.746;2022-10-24T02:49:33;14.10;99.90
13164;DHT22;6647;53.688;10.746;2022-10-24T02:50:54;14.10;99.90
13164;DHT22;6647;53.688;10.746;2022-10-24T02:52:16;14.10;99.90
13164;DHT22;6647;53.688;10.746;2022-10-24T02:53:38;14.00;99.90
13164;DHT22;6647;53.688;10.746;2022-10-24T02:54:59;14.00;99.90
13164;DHT22;6647;53.688;10.746;2022-10-24T02:56:20;14.00;99.90
13164;DHT22;6647;53.688;10.746;2022-10-24T02:57:41;14.00;99.90
13164;DHT22;6647;53.688;10.746;2022-10-24T02:59:02;14.10;99.90
13164;DHT22;6647;53.688;10.746;2022-10-24T03:00:22;14.00;99.90
13164;DHT22;6647;53.688;10.746;2022-10-24T03:01:43;14.00;99.90
13164;DHT22;6647;53.688;10.746;2022-10-24T03:03:04;14.00;99.90
13164;DHT22;6647;53.688;10.746;2022-10-24T03:04:25;14.00;99.90
13164;DHT22;6647;53.688;10.746;2022-10-24T03:05:46;14.00;99.90
13164;DHT22;6647;53.688;10.746;2022-10-24T03:07:07;14.00;99.90
13164;DHT22;6647;53.688;10.746;2022-10-24T03:08:28;14.00;99.90
13164;DHT22;6647;53.688;10.746;2022-10-24T03:09:48;14.00;99.90
13164;DHT22;6647;53.688;10.746;2022-10-24T03:11:09;14.00;99.90
13164;DHT22;6647;53.688;10.746;2022-10-24T03:12:30;14.00;99.90
13164;DHT22;6647;53.688;10.746;2022-10-24T03:13:51;14.00;99.90
13164;DHT22;6647;53.688;10.746;2022-10-24T03:15:12;14.00;99.90
13164;DHT22;6647;53.688;10.746;2022-10-24T03:16:33;14.00;99.90
13164;DHT22;6647;53.688;10.746;2022-10-24T03:17:54;14.00;99.90
13164;DHT22;6647;53.688;10.746;2022-10-24T03:19:15;14.00;99.90
13164;DHT22;6647;53.688;10.746;2022-10-24T03:20:39;14.00;99.90
13164;DHT22;6647;53.688;10.746;2022-10-24T03:22:00;14.00;99.90
13164;DHT22;6647;53.688;10.746;2022-10-24T03:23:20;14.00;99.90
13164;DHT22;6647;53.688;10.746;2022-10-24T03:24:42;14.00;99.90
13164;DHT22;6647;53.688;10.746;2022-10-24T03:26:03;14.00;99.90
13164;DHT22;6647;53.688;10.746;2022-10-24T03:27:23;14.00;99.90
13164;DHT22;6647;53.688;10.746;2022-10-24T03:28:44;13.90;99.90
13164;DHT22;6647;53.688;10.746;2022-10-24T03:30:06;13.90;99.90
13164;DHT22;6647;53.688;10.746;2022-10-24T03:31:27;13.90;99.90
13164;DHT22;6647;53.688;10.746;2022-10-24T03:32:50;13.90;99.90
13164;DHT22;6647;53.688;10.746;2022-10-24T03:34:11;13.90;99.90
13164;DHT22;6647;53.688;10.746;2022-10-24T03:35:32;13.90;99.90
13164;DHT22;6647;53.688;10.746;2022-10-24T03:36:54;13.90;99.90
13164;DHT22;6647;53.688;10.746;2022-10-24T03:38:15;13.90;99.90
13164;DHT22;6647;53.688;10.746;2022-10-24T03:39:38;13.90;99.90
13164;DHT22;6647;53.688;10.746;2022-10-24T03:40:59;13.90;99.90
13164;DHT22;6647;53.688;10.746;2022-10-24T03:42:20;13.90;99.90
13164;DHT22;6647;53.688;10.746;2022-10-24T03:43:41;13.90;99.90
13164;DHT22;6647;53.688;10.746;2022-10-24T03:45:02;13.90;99.90
13164;DHT22;6647;53.688;10.746;2022-10-24T03:46:23;13.90;99.90
13164;DHT22;6647;53.688;10.746;2022-10-24T03:47:44;13.90;99.90
13164;DHT22;6647;53.688;10.746;2022-10-24T03:49:05;13.90;99.90
13164;DHT22;6647;53.688;10.746;2022-10-24T03:50:26;13.80;99.90
13164;DHT22;6647;53.688;10.746;2022-10-24T03:51:47;13.80;99.90
13164;DHT22;6647;53.688;10.746;2022-10-24T03:53:08;13.90;99.90
13164;DHT22;6647;53.688;10.746;2022-10-24T03:54:29;13.80;99.90
13164;DHT22;6647;53.688;10.746;2022-10-24T03:55:49;13.80;99.90
13164;DHT22;6647;53.688;10.746;2022-10-24T03:57:10;13.80;99.90
13164;DHT22;6647;53.688;10.746;2022-10-24T03:58:31;13.80;99.90
13164;DHT22;6647;53.688;10.746;2022-10-24T03:59:52;13.80;99.90
13164;DHT22;6647;53.688;10.746;2022-10-24T04:01:13;13.80;99.90
13164;DHT22;6647;53.688;10.746;2022-10-24T04:02:37;13.80;99.90
13164;DHT22;6647;53.688;10.746;2022-10-24T04:03:58;13.80;99.90
13164;DHT22;6647;53.688;10.746;2022-10-24T04:05:19;13.80;99.90
13164;DHT22;6647;53.688;10.746;2022-10-24T04:06:40;13.80;99.90
13164;DHT22;6647;53.688;10.746;2022-10-24T04:08:02;13.80;99.90
13164;DHT22;6647;53.688;10.746;2022-10-24T04:09:23;13.80;99.90
13164;DHT22;6647;53.688;10.746;2022-10-24T04:10:44;13.70;99.90
13164;DHT22;6647;53.688;10.746;2022-10-24T04:12:05;13.80;99.90
13164;DHT22;6647;53.688;10.746;2022-10-24T04:13:26;13.80;99.90
13164;DHT22;6647;53.688;10.746;2022-10-24T04:14:47;13.80;99.90
13164;DHT22;6647;53.688;10.746;2022-10-24T04:16:08;13.70;99.90
13164;DHT22;6647;53.688;10.746;2022-10-24T04:17:29;13.70;99.90
13164;DHT22;6647;53.688;10.746;2022-10-24T04:18:50;13.70;99.90
13164;DHT22;6647;53.688;10.746;2022-10-24T04:20:11;13.70;99.90
13164;DHT22;6647;53.688;10.746;2022-10-24T04:21:32;13.70;99.90
13164;DHT22;6647;53.688;10.746;2022-10-24T04:22:53;13.70;99.90
13164;DHT22;6647;53.688;10.746;2022-10-24T04:24:14;13.70;99.90
13164;DHT22;6647;53.688;10.746;2022-10-24T04:25:35;13.70;99.90
13164;DHT22;6647;53.688;10.746;2022-10-24T04:26:56;13.70;99.90
13164;DHT22;6647;53.688;10.746;2022-10-24T04:28:17;13.70;99.90
13164;DHT22;6647;53.688;10.746;2022-10-24T04:29:38;13.70;99.90
13164;DHT22;6647;53.688;10.746;2022-10-24T04:30:58;13.70;99.90
13164;DHT22;6647;53.688;10.746;2022-10-24T04:32:19;13.70;99.90
13164;DHT22;6647;53.688;10.746;2022-10-24T04:33:40;13.70;99.90
13164;DHT22;6647;53.688;10.746;2022-10-24T04:35:02;13.70;99.90
13164;DHT22;6647;53.688;10.746;2022-10-24T04:36:23;13.70;99.90
13164;DHT22;6647;53.688;10.746;2022-10-24T04:37:44;13.70;99.90
13164;DHT22;6647;53.688;10.746;2022-10-24T04:39:06;13.70;99.90
13164;DHT22;6647;53.688;10.746;2022-10-24T04:40:27;13.70;99.90
13164;DHT22;6647;53.688;10.746;2022-10-24T04:41:48;13.70;99.90
13164;DHT22;6647;53.688;10.746;2022-10-24T04:43:09;13.70;99.90
13164;DHT22;6647;53.688;10.746;2022-10-24T04:44:29;13.70;99.90
13164;DHT22;6647;53.688;10.746;2022-10-24T04:45:50;13.60;99.90
13164;DHT22;6647;53.688;10.746;2022-10-24T04:47:11;13.70;99.90
13164;DHT22;6647;53.688;10.746;2022-10-24T04:48:32;13.70;99.90
13164;DHT22;6647;53.688;10.746;2022-10-24T04:49:53;13.70;99.90
13164;DHT22;6647;53.688;10.746;2022-10-24T04:51:14;13.60;99.90
13164;DHT22;6647;53.688;10.746;2022-10-24T04:52:35;13.60;99.90
13164;DHT22;6647;53.688;10.746;2022-10-24T04:53:56;13.60;99.90
13164;DHT22;6647;53.688;10.746;2022-10-24T04:55:17;13.60;99.90
13164;DHT22;6647;53.688;10.746;2022-10-24T04:56:37;13.60;99.90
13164;DHT22;6647;53.688;10.746;2022-10-24T04:57:58;13.60;99.90
13164;DHT22;6647;53.688;10.746;2022-10-24T04:59:19;13.60;99.90
13164;DHT22;6647;53.688;10.746;2022-10-24T05:00:40;13.60;99.90
13164;DHT22;6647;53.688;10.746;2022-10-24T05:02:06;13.60;99.90
13164;DHT22;6647;53.688;10.746;2022-10-24T05:03:27;13.60;99.90
13164;DHT22;6647;53.688;10.746;2022-10-24T05:04:48;13.50;99.90
13164;DHT22;6647;53.688;10.746;2022-10-24T05:06:09;13.50;99.90
13164;DHT22;6647;53.688;10.746;2022-10-24T05:07:30;13.50;99.90
13164;DHT22;6647;53.688;10.746;2022-10-24T05:08:50;13.50;99.90
13164;DHT22;6647;53.688;10.746;2022-10-24T05:10:13;13.50;99.90
13164;DHT22;6647;53.688;10.746;2022-10-24T05:11:34;13.40;99.90
13164;DHT22;6647;53.688;10.746;2022-10-24T05:12:55;13.50;99.90
13164;DHT22;6647;53.688;10.746;2022-10-24T05:14:16;13.50;99.90
13164;DHT22;6647;53.688;10.746;2022-10-24T05:15:36;13.40;99.90
13164;DHT22;6647;53.688;10.746;2022-10-24T05:16:57;13.40;99.90
13164;DHT22;6647;53.688;10.746;2022-10-24T05:18:18;13.40;99.90
13164;DHT22;6647;53.688;10.746;2022-10-24T05:19:39;13.40;99.90
13164;DHT22;6647;53.688;10.746;2022-10-24T05:21:00;13.40;99.90
13164;DHT22;6647;53.688;10.746;2022-10-24T05:22:21;13.40;99.90
13164;DHT22;6647;53.688;10.746;2022-10-24T05:23:43;13.40;99.90
13164;DHT22;6647;53.688;10.746;2022-10-24T05:25:05;13.50;99.90
13164;DHT22;6647;53.688;10.746;2022-10-24T05:26:26;13.50;99.90
13164;DHT22;6647;53.688;10.746;2022-10-24T05:27:46;13.50;99.90
13164;DHT22;6647;53.688;10.746;2022-10-24T05:29:07;13.40;99.90
13164;DHT22;6647;53.688;10.746;2022-10-24T05:30:28;13.50;99.90
13164;DHT22;6647;53.688;10.746;2022-10-24T05:31:50;13.50;99.90
13164;DHT22;6647;53.688;10.746;2022-10-24T05:33:11;13.40;99.90
13164;DHT22;6647;53.688;10.746;2022-10-24T05:34:32;13.40;99.90
13164;DHT22;6647;53.688;10.746;2022-10-24T05:35:53;13.40;99.90
13164;DHT22;6647;53.688;10.746;2022-10-24T05:37:14;13.40;99.90
13164;DHT22;6647;53.688;10.746;2022-10-24T05:38:35;13.40;99.90
13164;DHT22;6647;53.688;10.746;2022-10-24T05:39:56;13.30;99.90
13164;DHT22;6647;53.688;10.746;2022-10-24T05:41:17;13.40;99.90
13164;DHT22;6647;53.688;10.746;2022-10-24T05:42:38;13.40;99.90
13164;DHT22;6647;53.688;10.746;2022-10-24T05:43:58;13.40;99.90
13164;DHT22;6647;53.688;10.746;2022-10-24T05:45:20;13.40;99.90
13164;DHT22;6647;53.688;10.746;2022-10-24T05:46:40;13.40;99.90
13164;DHT22;6647;53.688;10.746;2022-10-24T05:48:01;13.40;99.90
13164;DHT22;6647;53.688;10.746;2022-10-24T05:49:22;13.40;99.90
13164;DHT22;6647;53.688;10.746;2022-10-24T05:50:43;13.30;99.90
13164;DHT22;6647;53.688;10.746;2022-10-24T05:52:04;13.30;99.90
13164;DHT22;6647;53.688;10.746;2022-10-24T05:53:25;13.30;99.90
13164;DHT22;6647;53.688;10.746;2022-10-24T05:54:46;13.30;99.90
13164;DHT22;6647;53.688;10.746;2022-10-24T05:56:07;13.30;99.90
13164;DHT22;6647;53.688;10.746;2022-10-24T05:57:28;13.30;99.90
13164;DHT22;6647;53.688;10.746;2022-10-24T05:58:49;13.30;99.90
13164;DHT22;6647;53.688;10.746;2022-10-24T06:00:13;13.30;99.90
13164;DHT22;6647;53.688;10.746;2022-10-24T06:01:34;13.30;99.90
13164;DHT22;6647;53.688;10.746;2022-10-24T06:02:55;13.30;99.90
13164;DHT22;6647;53.688;10.746;2022-10-24T06:04:16;13.30;99.90
13164;DHT22;6647;53.688;10.746;2022-10-24T06:05:36;13.40;99.90
13164;DHT22;6647;53.688;10.746;2022-10-24T06:06:57;13.40;99.90
13164;DHT22;6647;53.688;10.746;2022-10-24T06:08:18;13.30;99.90
13164;DHT22;6647;53.688;10.746;2022-10-24T06:09:40;13.40;99.90
13164;DHT22;6647;53.688;10.746;2022-10-24T06:11:02;13.40;99.90
13164;DHT22;6647;53.688;10.746;2022-10-24T06:12:23;13.30;99.90
13164;DHT22;6647;53.688;10.746;2022-10-24T06:13:44;13.40;99.90
13164;DHT22;6647;53.688;10.746;2022-10-24T06:15:07;13.30;99.90
13164;DHT22;6647;53.688;10.746;2022-10-24T06:16:28;13.30;99.90
13164;DHT22;6647;53.688;10.746;2022-10-24T06:17:50;13.30;99.90
13164;DHT22;6647;53.688;10.746;2022-10-24T06:19:11;13.30;99.90
13164;DHT22;6647;53.688;10.746;2022-10-24T06:20:32;13.30;99.90
13164;DHT22;6647;53.688;10.746;2022-10-24T06:21:53;13.30;99.90
13164;DHT22;6647;53.688;10.746;2022-10-24T06:23:14;13.30;99.90
13164;DHT22;6647;53.688;10.746;2022-10-24T06:24:36;13.30;99.90
13164;DHT22;6647;53.688;10.746;2022-10-24T06:25:58;13.30;99.90
13164;DHT22;6647;53.688;10.746;2022-10-24T06:27:18;13.30;99.90
13164;DHT22;6647;53.688;10.746;2022-10-24T06:28:40;13.30;99.90
13164;DHT22;6647;53.688;10.746;2022-10-24T06:30:01;13.40;99.90
13164;DHT22;6647;53.688;10.746;2022-10-24T06:31:22;13.30;99.90
13164;DHT22;6647;53.688;10.746;2022-10-24T06:32:45;13.30;99.90
13164;DHT22;6647;53.688;10.746;2022-10-24T06:34:06;13.30;99.90
13164;DHT22;6647;53.688;10.746;2022-10-24T06:35:27;13.30;99.90
13164;DHT22;6647;53.688;10.746;2022-10-24T06:36:47;13.30;99.90
13164;DHT22;6647;53.688;10.746;2022-10-24T06:38:08;13.30;99.90
13164;DHT22;6647;53.688;10.746;2022-10-24T06:39:29;13.30;99.90
13164;DHT22;6647;53.688;10.746;2022-10-24T06:40:50;13.30;99.90
13164;DHT22;6647;53.688;10.746;2022-10-24T06:42:11;13.30;99.90
13164;DHT22;6647;53.688;10.746;2022-10-24T06:43:32;13.30;99.90
13164;DHT22;6647;53.688;10.746;2022-10-24T06:44:53;13.40;99.90
13164;DHT22;6647;53.688;10.746;2022-10-24T06:46:16;13.40;99.90
13164;DHT22;6647;53.688;10.746;2022-10-24T06:47:37;13.30;99.90
13164;DHT22;6647;53.688;10.746;2022-10-24T06:48:58;13.40;99.90
13164;DHT22;6647;53.688;10.746;2022-10-24T06:50:19;13.30;99.90
13164;DHT22;6647;53.688;10.746;2022-10-24T06:51:40;13.30;99.90
13164;DHT22;6647;53.688;10.746;2022-10-24T06:53:01;13.30;99.90
13164;DHT22;6647;53.688;10.746;2022-10-24T06:54:22;13.40;99.90
13164;DHT22;6647;53.688;10.746;2022-10-24T06:55:43;13.30;99.90
13164;DHT22;6647;53.688;10.746;2022-10-24T06:57:04;13.40;99.90
13164;DHT22;6647;53.688;10.746;2022-10-24T06:58:24;13.40;99.90
13164;DHT22;6647;53.688;10.746;2022-10-24T06:59:45;13.30;99.90
13164;DHT22;6647;53.688;10.746;2022-10-24T07:01:12;13.30;99.90
13164;DHT22;6647;53.688;10.746;2022-10-24T07:02:33;13.30;99.90
13164;DHT22;6647;53.688;10.746;2022-10-24T07:03:54;13.40;99.90
13164;DHT22;6647;53.688;10.746;2022-10-24T07:05:15;13.30;99.90
13164;DHT22;6647;53.688;10.746;2022-10-24T07:06:36;13.40;99.90
13164;DHT22;6647;53.688;10.746;2022-10-24T07:07:57;13.40;99.90
13164;DHT22;6647;53.688;10.746;2022-10-24T07:09:18;13.40;99.90
13164;DHT22;6647;53.688;10.746;2022-10-24T07:10:38;13.40;99.90
13164;DHT22;6647;53.688;10.746;2022-10-24T07:11:59;13.40;99.90
13164;DHT22;6647;53.688;10.746;2022-10-24T07:13:20;13.40;99.90
13164;DHT22;6647;53.688;10.746;2022-10-24T07:14:41;13.40;99.90
13164;DHT22;6647;53.688;10.746;2022-10-24T07:16:02;13.40;99.90
13164;DHT22;6647;53.688;10.746;2022-10-24T07:17:23;13.40;99.90
13164;DHT22;6647;53.688;10.746;2022-10-24T07:18:44;13.40;99.90
13164;DHT22;6647;53.688;10.746;2022-10-24T07:20:05;13.40;99.90
13164;DHT22;6647;53.688;10.746;2022-10-24T07:21:28;13.40;99.90
13164;DHT22;6647;53.688;10.746;2022-10-24T07:22:50;13.40;99.90
13164;DHT22;6647;53.688;10.746;2022-10-24T07:24:11;13.40;99.90
13164;DHT22;6647;53.688;10.746;2022-10-24T07:25:32;13.40;99.90
13164;DHT22;6647;53.688;10.746;2022-10-24T07:26:53;13.50;99.90
13164;DHT22;6647;53.688;10.746;2022-10-24T07:28:14;13.50;99.90
13164;DHT22;6647;53.688;10.746;2022-10-24T07:29:38;13.50;99.90
13164;DHT22;6647;53.688;10.746;2022-10-24T07:30:59;13.50;99.90
13164;DHT22;6647;53.688;10.746;2022-10-24T07:32:20;13.50;99.90
13164;DHT22;6647;53.688;10.746;2022-10-24T07:33:41;13.50;99.90
13164;DHT22;6647;53.688;10.746;2022-10-24T07:35:02;13.50;99.90
13164;DHT22;6647;53.688;10.746;2022-10-24T07:36:24;13.50;99.90
13164;DHT22;6647;53.688;10.746;2022-10-24T07:37:45;13.50;99.90
13164;DHT22;6647;53.688;10.746;2022-10-24T07:39:06;13.60;99.90
13164;DHT22;6647;53.688;10.746;2022-10-24T07:40:27;13.60;99.90
13164;DHT22;6647;53.688;10.746;2022-10-24T07:41:48;13.60;99.90
13164;DHT22;6647;53.688;10.746;2022-10-24T07:43:09;13.60;99.90
13164;DHT22;6647;53.688;10.746;2022-10-24T07:44:30;13.60;99.90
13164;DHT22;6647;53.688;10.746;2022-10-24T07:45:51;13.60;99.90
13164;DHT22;6647;53.688;10.746;2022-10-24T07:47:12;13.70;99.90
13164;DHT22;6647;53.688;10.746;2022-10-24T07:48:33;13.70;99.90
13164;DHT22;6647;53.688;10.746;2022-10-24T07:49:54;13.70;99.90
13164;DHT22;6647;53.688;10.746;2022-10-24T07:51:16;13.70;99.90
13164;DHT22;6647;53.688;10.746;2022-10-24T07:52:37;13.70;99.90
13164;DHT22;6647;53.688;10.746;2022-10-24T07:53:58;13.80;99.90
13164;DHT22;6647;53.688;10.746;2022-10-24T07:55:19;13.80;99.90
13164;DHT22;6647;53.688;10.746;2022-10-24T07:56:40;13.80;99.90
13164;DHT22;6647;53.688;10.746;2022-10-24T07:58:01;13.80;99.90
13164;DHT22;6647;53.688;10.746;2022-10-24T07:59:21;13.80;99.90
13164;DHT22;6647;53.688;10.746;2022-10-24T08:00:42;13.80;99.90
13164;DHT22;6647;53.688;10.746;2022-10-24T08:02:03;13.90;99.90
13164;DHT22;6647;53.688;10.746;2022-10-24T08:03:24;13.90;99.90
13164;DHT22;6647;53.688;10.746;2022-10-24T08:04:45;13.90;99.90
13164;DHT22;6647;53.688;10.746;2022-10-24T08:06:11;13.90;99.90
13164;DHT22;6647;53.688;10.746;2022-10-24T08:07:36;13.90;99.90
13164;DHT22;6647;53.688;10.746;2022-10-24T08:08:57;14.00;99.90
13164;DHT22;6647;53.688;10.746;2022-10-24T08:10:18;14.00;99.90
13164;DHT22;6647;53.688;10.746;2022-10-24T08:11:39;14.00;99.90
13164;DHT22;6647;53.688;10.746;2022-10-24T08:13:00;14.00;99.90
13164;DHT22;6647;53.688;10.746;2022-10-24T08:14:21;14.10;99.90
13164;DHT22;6647;53.688;10.746;2022-10-24T08:15:42;14.10;99.90
13164;DHT22;6647;53.688;10.746;2022-10-24T08:17:03;14.10;99.90
13164;DHT22;6647;53.688;10.746;2022-10-24T08:18:24;14.20;99.90
13164;DHT22;6647;53.688;10.746;2022-10-24T08:19:45;14.20;99.90
13164;DHT22;6647;53.688;10.746;2022-10-24T08:21:09;14.20;99.90
13164;DHT22;6647;53.688;10.746;2022-10-24T08:22:30;14.30;99.90
13164;DHT22;6647;53.688;10.746;2022-10-24T08:23:53;14.30;99.90
13164;DHT22;6647;53.688;10.746;2022-10-24T08:25:14;14.40;99.90
13164;DHT22;6647;53.688;10.746;2022-10-24T08:26:34;14.40;99.90
13164;DHT22;6647;53.688;10.746;2022-10-24T08:27:56;14.50;99.90
13164;DHT22;6647;53.688;10.746;2022-10-24T08:29:17;14.50;99.90
13164;DHT22;6647;53.688;10.746;2022-10-24T08:30:42;14.50;99.90
13164;DHT22;6647;53.688;10.746;2022-10-24T08:32:04;14.60;99.90
13164;DHT22;6647;53.688;10.746;2022-10-24T08:33:27;14.60;99.90
13164;DHT22;6647;53.688;10.746;2022-10-24T08:34:48;14.60;99.90
13164;DHT22;6647;53.688;10.746;2022-10-24T08:36:23;14.70;99.90
13164;DHT22;6647;53.688;10.746;2022-10-24T08:37:44;14.70;99.90
13164;DHT22;6647;53.688;10.746;2022-10-24T08:39:05;14.70;99.90
13164;DHT22;6647;53.688;10.746;2022-10-24T08:40:27;14.80;99.90
13164;DHT22;6647;53.688;10.746;2022-10-24T08:41:53;14.80;99.90
13164;DHT22;6647;53.688;10.746;2022-10-24T08:43:16;14.80;99.90
13164;DHT22;6647;53.688;10.746;2022-10-24T08:44:40;14.90;99.90
13164;DHT22;6647;53.688;10.746;2022-10-24T08:48:08;14.90;99.90
13164;DHT22;6647;53.688;10.746;2022-10-24T08:49:50;15.00;99.90
13164;DHT22;6647;53.688;10.746;2022-10-24T08:51:38;15.00;99.90
13164;DHT22;6647;53.688;10.746;2022-10-24T08:54:36;15.20;99.90
13164;DHT22;6647;53.688;10.746;2022-10-24T08:55:59;15.20;99.90
13164;DHT22;6647;53.688;10.746;2022-10-24T08:57:24;15.20;99.90
13164;DHT22;6647;53.688;10.746;2022-10-24T08:58:46;15.30;99.90
13164;DHT22;6647;53.688;10.746;2022-10-24T09:00:19;15.30;99.90
13164;DHT22;6647;53.688;10.746;2022-10-24T09:01:55;15.40;99.90
13164;DHT22;6647;53.688;10.746;2022-10-24T09:03:29;15.40;99.90